Time,TemperatureF,DewpointF,PressureIn,WindDirection,WindDirectionDegrees,WindSpeedMPH,WindSpeedGustMPH,Humidity,HourlyPrecipIn,Conditions,Clouds,dailyrainin,SoftwareType,DateUTC
2013-05-31 04:00:00,40.0,-99.9,29.61,NNE,20,23.0,-999.0,-999,-99.99,,,-99.99,,2013-05-31 04:00:00,
2013-05-31 04:23:00,40.0,-99.9,29.61,NNE,20,23.0,-999.0,-999,-99.99,,,-99.99,,2013-05-31 04:23:00,
2013-05-31 04:33:00,40.0,-99.9,29.61,NNE,20,23.0,-999.0,-999,-99.99,,,-99.99,,2013-05-31 04:33:00,
2013-05-31 04:43:00,40.0,-99.9,29.61,NNE,20,23.0,-999.0,-999,-99.99,,,-99.99,,2013-05-31 04:43:00,
2013-05-31 04:53:00,40.0,-99.9,29.61,NNE,20,23.0,-999.0,-999,-99.99,,,-99.99,,2013-05-31 04:53:00,
2013-05-31 05:22:00,40.0,-99.9,29.61,North,0,10.0,-999.0,-999,-99.99,,,-99.99,,2013-05-31 05:22:00,
2013-05-31 05:32:00,40.0,-99.9,29.61,North,0,10.0,-999.0,-999,-99.99,,,-99.99,,2013-05-31 05:32:00,
2013-05-31 06:00:00,46.0,-99.9,29.59,ENE,70,14.0,-999.0,-999,-99.99,,,-99.99,,2013-05-31 06:00:00,
2013-05-31 06:22:00,46.0,-99.9,29.59,ENE,70,14.0,-999.0,-999,-99.99,,,-99.99,,2013-05-31 06:22:00,
2013-05-31 06:32:00,46.0,-99.9,29.59,ENE,70,14.0,-999.0,-999,-99.99,,,-99.99,,2013-05-31 06:32:00,
2013-05-31 06:42:00,46.0,-99.9,29.59,ENE,70,14.0,-999.0,-999,-99.99,,,-99.99,,2013-05-31 06:42:00,
2013-05-31 06:52:00,46.0,-99.9,29.59,ENE,70,14.0,-999.0,-999,-99.99,,,-99.99,,2013-05-31 06:52:00,
2013-05-31 07:00:00,50.0,-99.9,29.58,ESE,120,17.0,-999.0,-999,-99.99,,,-99.99,,2013-05-31 07:00:00,
2013-05-31 07:22:00,50.0,-99.9,29.58,ESE,120,17.0,-999.0,-999,-99.99,,,-99.99,,2013-05-31 07:22:00,
2013-05-31 07:32:00,50.0,-99.9,29.58,ESE,120,17.0,-999.0,-999,-99.99,,,-99.99,,2013-05-31 07:32:00,
2013-05-31 07:42:00,50.0,-99.9,29.58,ESE,120,17.0,-999.0,-999,-99.99,,,-99.99,,2013-05-31 07:42:00,
2013-05-31 07:53:00,50.0,-99.9,29.58,ESE,120,17.0,-999.0,-999,-99.99,,,-99.99,,2013-05-31 07:53:00,
2013-05-31 08:00:00,52.0,-99.9,29.59,East,100,15.0,-999.0,-999,-99.99,,,-99.99,,2013-05-31 08:00:00,
2013-05-31 08:32:00,52.0,-99.9,29.59,East,100,15.0,-999.0,-999,-99.99,,,-99.99,,2013-05-31 08:32:00,
2013-05-31 08:42:00,52.0,-99.9,29.59,East,100,15.0,-999.0,-999,-99.99,,,-99.99,,2013-05-31 08:42:00,
2013-05-31 08:52:00,52.0,-99.9,29.59,East,100,15.0,-999.0,-999,-99.99,,,-99.99,,2013-05-31 08:52:00,
2013-05-31 12:00:00,51.0,-99.9,29.64,SSE,150,17.0,-999.0,-999,-99.99,,,-99.99,,2013-05-31 12:00:00,
2013-05-31 13:00:00,52.0,-99.9,29.64,SSE,160,16.0,-999.0,-999,-99.99,,,-99.99,,2013-05-31 13:00:00,
2013-05-31 13:32:00,52.0,-99.9,29.64,SSE,160,16.0,-999.0,-999,-99.99,,,-99.99,,2013-05-31 13:32:00,
2013-05-31 13:42:00,52.0,-99.9,29.64,SSE,160,16.0,-999.0,-999,-99.99,,,-99.99,,2013-05-31 13:42:00,
2013-05-31 13:52:00,52.0,-99.9,29.64,SSE,160,16.0,-999.0,-999,-99.99,,,-99.99,,2013-05-31 13:52:00,
2013-05-31 14:00:00,55.0,-99.9,29.65,South,180,13.0,-999.0,-999,-99.99,,,-99.99,,2013-05-31 14:00:00,
2013-05-31 14:22:00,55.0,-99.9,29.65,South,180,13.0,-999.0,-999,-99.99,,,-99.99,,2013-05-31 14:22:00,
2013-05-31 14:32:00,55.0,-99.9,29.65,South,180,13.0,-999.0,-999,-99.99,,,-99.99,,2013-05-31 14:32:00,
2013-05-31 14:42:00,55.0,-99.9,29.65,South,180,13.0,-999.0,-999,-99.99,,,-99.99,,2013-05-31 14:42:00,
2013-05-31 14:52:00,55.0,-99.9,29.65,South,180,13.0,-999.0,-999,-99.99,,,-99.99,,2013-05-31 14:52:00,
2013-05-31 15:00:00,50.0,-99.9,29.67,SSE,160,13.0,-999.0,-999,-99.99,,,-99.99,,2013-05-31 15:00:00,
2013-05-31 15:22:00,50.0,-99.9,29.67,SSE,160,13.0,-999.0,-999,-99.99,,,-99.99,,2013-05-31 15:22:00,
2013-05-31 15:33:00,50.0,-99.9,29.67,SSE,160,13.0,-999.0,-999,-99.99,,,-99.99,,2013-05-31 15:33:00,
2013-05-31 15:43:00,50.0,-99.9,29.67,SSE,160,13.0,-999.0,-999,-99.99,,,-99.99,,2013-05-31 15:43:00,
2013-05-31 15:53:00,50.0,-99.9,29.67,SSE,160,13.0,-999.0,-999,-99.99,,,-99.99,,2013-05-31 15:53:00,
2013-05-31 16:00:00,45.0,-99.9,29.67,South,170,15.0,-999.0,-999,-99.99,,,-99.99,,2013-05-31 16:00:00,
2013-05-31 16:22:00,45.0,-99.9,29.67,South,170,15.0,-999.0,-999,-99.99,,,-99.99,,2013-05-31 16:22:00,
2013-05-31 16:33:00,45.0,-99.9,29.67,South,170,15.0,-999.0,-999,-99.99,,,-99.99,,2013-05-31 16:33:00,
2013-05-31 16:42:00,45.0,-99.9,29.67,South,170,15.0,-999.0,-999,-99.99,,,-99.99,,2013-05-31 16:42:00,
2013-05-31 16:53:00,45.0,-99.9,29.67,South,170,15.0,-999.0,-999,-99.99,,,-99.99,,2013-05-31 16:53:00,